createdAt,value
2023-05-05T00:04:56.301Z,3.42
2023-05-05T00:09:57.172Z,3.80
2023-05-05T00:14:57.947Z,4.15
2023-05-05T00:19:59.206Z,3.30
2023-05-05T00:24:59.998Z,3.58
2023-05-05T00:30:01.664Z,3.80
2023-05-05T00:35:02.593Z,4.30
2023-05-05T00:40:03.858Z,3.62
2023-05-05T00:45:05.400Z,3.92
2023-05-05T00:50:09.064Z,3.42
2023-05-05T00:55:10.011Z,3.40
2023-05-05T01:00:11.584Z,3.65
2023-05-05T01:05:14.731Z,3.37
2023-05-05T01:15:49.914Z,3.20
2023-05-05T01:21:31.162Z,3.50
2023-05-05T01:26:59.456Z,3.40
2023-05-05T01:32:03.512Z,3.80
2023-05-05T01:37:14.316Z,3.50
2023-05-05T01:42:17.837Z,3.83
2023-05-05T01:47:20.356Z,3.87
2023-05-05T01:52:22.493Z,3.70
2023-05-05T01:57:25.728Z,3.95
2023-05-05T02:02:28.165Z,3.83
2023-05-05T02:07:31.475Z,3.40
2023-05-05T02:12:34.426Z,3.70
2023-05-05T02:22:36.508Z,3.85
2023-05-05T02:27:41.326Z,3.58
2023-05-05T02:32:54.503Z,3.97
2023-05-05T02:38:05.379Z,3.83
2023-05-05T02:43:15.945Z,3.90
2023-05-05T02:48:16.870Z,4.25
2023-05-05T02:53:23.912Z,4.05
2023-05-05T02:59:52.326Z,4.50
2023-05-05T03:05:10.267Z,4.32
2023-05-05T03:10:19.555Z,4.80
2023-05-05T03:15:27.014Z,4.28
2023-05-05T03:20:28.824Z,4.50
2023-05-05T03:25:41.942Z,4.47
2023-05-05T03:30:43.601Z,4.82
2023-05-05T03:35:45.151Z,5.22
2023-05-05T03:40:46.848Z,4.75
2023-05-05T03:45:50.746Z,5.30
2023-05-05T03:50:53.173Z,4.90
2023-05-05T03:55:55.004Z,4.53
2023-05-05T04:00:56.229Z,4.25
2023-05-05T04:05:57.307Z,4.95
2023-05-05T04:10:58.695Z,5.05
2023-05-05T04:15:59.903Z,5.03
2023-05-05T04:21:01.073Z,5.53
2023-05-05T04:26:02.052Z,4.80
2023-05-05T04:31:04.182Z,5.32
2023-05-05T04:36:07.313Z,5.28
2023-05-05T04:41:08.260Z,5.47
2023-05-05T04:46:09.969Z,4.93
2023-05-05T04:51:12.042Z,5.68
2023-05-05T04:56:12.923Z,5.05
2023-05-05T05:01:13.805Z,4.53
2023-05-05T05:06:14.773Z,5.40
2023-05-05T05:11:15.631Z,5.12
2023-05-05T05:16:16.591Z,4.60
2023-05-05T05:21:17.463Z,5.05
2023-05-05T05:26:18.655Z,4.62
2023-05-05T05:31:19.893Z,4.40
2023-05-05T05:36:21.675Z,4.62
2023-05-05T05:41:22.977Z,4.35
2023-05-05T05:46:23.959Z,3.90
2023-05-05T05:51:25.550Z,3.85
2023-05-05T05:56:26.843Z,3.83
2023-05-05T06:01:27.961Z,3.97
2023-05-05T06:06:29.177Z,4.60
2023-05-05T06:11:30.018Z,3.83
2023-05-05T06:16:31.149Z,3.83
2023-05-05T06:21:33.304Z,3.80
2023-05-05T06:26:34.369Z,4.28
2023-05-05T06:31:35.407Z,3.87
2023-05-05T06:36:36.323Z,4.40
2023-05-05T06:41:37.236Z,3.33
2023-05-05T06:46:38.119Z,4.30
2023-05-05T06:51:40.088Z,3.80
2023-05-05T06:56:42.394Z,3.75
2023-05-05T07:01:43.183Z,3.87
2023-05-05T07:06:44.164Z,3.40
2023-05-05T07:11:45.868Z,2.97
2023-05-05T07:16:46.686Z,3.35
2023-05-05T07:21:47.525Z,3.58
2023-05-05T07:26:48.434Z,3.53
2023-05-05T07:31:49.307Z,3.28
2023-05-05T07:36:50.418Z,2.70
2023-05-05T07:41:51.170Z,2.45
2023-05-05T07:46:51.996Z,2.12
2023-05-05T07:51:53.705Z,1.87
2023-05-05T07:56:54.881Z,2.10
2023-05-05T08:01:55.706Z,1.02
2023-05-05T08:06:56.635Z,1.10
2023-05-05T08:11:57.426Z,1.00
2023-05-05T08:16:58.234Z,1.20
2023-05-05T08:22:01.312Z,1.10
2023-05-05T08:27:02.904Z,1.00
2023-05-05T08:32:03.918Z,1.05
2023-05-05T08:37:04.909Z,0.80
2023-05-05T08:42:05.857Z,0.88
2023-05-05T08:47:10.457Z,1.10
2023-05-05T08:52:18.205Z,0.90
2023-05-05T08:57:31.680Z,1.10
2023-05-05T09:02:33.439Z,1.35
2023-05-05T09:07:35.613Z,0.97
2023-05-05T09:12:40.778Z,1.20
2023-05-05T09:17:42.532Z,1.08
2023-05-05T09:22:45.416Z,1.20
2023-05-05T09:27:49.004Z,1.25
2023-05-05T09:32:52.489Z,1.25
2023-05-05T09:37:53.946Z,1.25
2023-05-05T09:43:00.973Z,1.40
2023-05-05T09:48:02.029Z,1.20
2023-05-05T09:53:03.302Z,1.40
2023-05-05T09:58:22.863Z,1.37
2023-05-05T10:03:25.205Z,1.17
2023-05-05T10:08:30.082Z,0.98
2023-05-05T10:13:35.778Z,1.37
2023-05-05T10:18:42.877Z,1.00
2023-05-05T10:23:48.904Z,1.08
2023-05-05T10:28:55.585Z,0.70
2023-05-05T10:34:09.477Z,0.60
2023-05-05T10:39:11.091Z,0.70
2023-05-05T10:44:13.756Z,0.90
2023-05-05T10:55:03.925Z,1.02
2023-05-05T11:00:07.767Z,1.25
2023-05-05T11:05:22.478Z,1.10
2023-05-05T11:10:23.520Z,1.08
2023-05-05T11:15:42.151Z,1.20
2023-05-05T11:21:28.203Z,1.23
2023-05-05T11:26:48.250Z,0.90
2023-05-05T11:32:18.018Z,0.90
2023-05-05T11:37:23.147Z,0.68
2023-05-05T11:42:27.947Z,1.12
2023-05-05T11:47:31.786Z,0.95
2023-05-05T11:52:33.670Z,0.90
2023-05-05T11:57:34.424Z,1.00
2023-05-05T12:02:35.858Z,1.10
2023-05-05T12:07:37.023Z,0.82
2023-05-05T12:12:40.078Z,1.52
2023-05-05T12:17:45.265Z,1.12
2023-05-05T12:22:47.239Z,0.80
2023-05-05T12:27:54.613Z,0.80
2023-05-05T12:33:06.273Z,1.25
2023-05-05T12:38:07.149Z,0.90
2023-05-05T12:43:08.091Z,1.00
2023-05-05T12:48:22.284Z,1.33
2023-05-05T12:53:24.816Z,0.68
2023-05-05T12:58:27.121Z,0.90
2023-05-05T13:03:28.034Z,1.15
2023-05-05T13:08:44.621Z,0.77
2023-05-05T13:13:45.914Z,1.15
2023-05-05T13:18:48.638Z,0.80
2023-05-05T13:28:50.461Z,0.80
2023-05-05T13:33:51.216Z,0.70
2023-05-05T13:38:52.374Z,0.52
2023-05-05T13:43:53.519Z,0.70
2023-05-05T13:48:56.639Z,1.40
2023-05-05T13:53:57.788Z,0.88
2023-05-05T13:58:58.708Z,1.30
2023-05-05T14:03:59.796Z,1.02
2023-05-05T14:09:04.825Z,0.90
2023-05-05T14:14:06.124Z,1.00
2023-05-05T14:19:06.901Z,1.10
2023-05-05T14:24:07.800Z,1.00
2023-05-05T14:29:08.618Z,1.10
2023-05-05T14:34:09.363Z,0.73
2023-05-05T14:39:10.231Z,0.90
2023-05-05T14:44:11.120Z,0.88
2023-05-05T14:49:11.952Z,1.00
2023-05-05T14:54:26.861Z,1.17
2023-05-05T14:59:28.679Z,1.10
2023-05-05T15:04:29.670Z,0.77
2023-05-05T15:09:30.487Z,1.00
2023-05-05T15:14:31.316Z,1.08
2023-05-05T15:19:32.130Z,0.88
2023-05-05T15:24:32.886Z,1.27
2023-05-05T15:29:34.086Z,1.20
2023-05-05T15:34:36.508Z,1.33
2023-05-05T15:39:37.257Z,1.70
2023-05-05T15:44:38.746Z,0.90
2023-05-05T15:49:39.507Z,1.33
2023-05-05T15:54:40.741Z,1.27
2023-05-05T15:59:41.576Z,1.48
2023-05-05T16:04:42.377Z,1.27
2023-05-05T16:09:43.691Z,1.12
2023-05-05T16:14:44.606Z,2.03
2023-05-05T16:19:45.404Z,1.48
2023-05-05T16:24:46.202Z,1.20
2023-05-05T16:29:47.036Z,1.40
2023-05-05T16:34:47.791Z,0.93
2023-05-05T16:39:48.677Z,1.10
2023-05-05T16:44:49.927Z,0.90
2023-05-05T16:49:51.764Z,1.45
2023-05-05T16:54:54.769Z,0.57
2023-05-05T17:04:56.523Z,0.73
2023-05-05T17:09:57.419Z,0.73
2023-05-05T17:14:58.865Z,0.57
2023-05-05T17:20:02.244Z,0.43
2023-05-05T17:25:04.333Z,0.70
2023-05-05T17:30:06.151Z,0.57
2023-05-05T17:35:07.810Z,0.50
2023-05-05T17:40:09.240Z,0.45
2023-05-05T17:45:11.013Z,0.55
2023-05-05T17:50:12.336Z,0.55
2023-05-05T17:55:13.105Z,0.45
2023-05-05T18:00:15.130Z,1.65
2023-05-05T18:05:15.878Z,0.80
2023-05-05T18:10:16.883Z,0.65
2023-05-05T18:15:17.802Z,0.50
2023-05-05T18:20:18.666Z,2.03
2023-05-05T18:25:19.639Z,2.78
2023-05-05T18:30:20.507Z,2.35
2023-05-05T18:35:21.596Z,1.80
2023-05-05T18:40:22.514Z,5.45
2023-05-05T18:45:23.727Z,1.17
2023-05-05T18:50:25.109Z,1.10
2023-05-05T18:55:25.865Z,0.98
2023-05-05T19:00:26.672Z,0.88
2023-05-05T19:05:27.423Z,0.50
2023-05-05T19:10:28.256Z,0.68
2023-05-05T19:15:29.285Z,0.77
2023-05-05T19:20:30.973Z,0.70
2023-05-05T19:25:31.784Z,0.73
2023-05-05T19:30:35.685Z,1.00
2023-05-05T19:35:36.459Z,0.85
2023-05-05T19:40:38.915Z,0.90
2023-05-05T19:45:40.247Z,0.90
2023-05-05T19:50:41.487Z,0.90
2023-05-05T19:55:42.259Z,0.70
2023-05-05T20:00:43.085Z,0.73
2023-05-05T20:05:43.846Z,0.98
2023-05-05T20:10:50.705Z,0.80
2023-05-05T20:15:52.478Z,0.95
2023-05-05T20:20:53.283Z,0.80
2023-05-05T20:25:54.343Z,0.70
2023-05-05T20:30:55.302Z,1.27
2023-05-05T20:35:56.243Z,1.10
2023-05-05T20:40:57.070Z,1.10
2023-05-05T20:45:58.245Z,1.20
2023-05-05T20:51:03.311Z,1.30
2023-05-05T20:56:06.352Z,1.05
2023-05-05T21:01:08.110Z,1.23
2023-05-05T21:06:08.877Z,1.10
2023-05-05T21:11:09.748Z,0.95
2023-05-05T21:16:10.890Z,1.23
2023-05-05T21:21:11.753Z,1.30
2023-05-05T21:26:12.673Z,1.12
2023-05-05T21:31:21.824Z,1.60
2023-05-05T21:36:23.918Z,2.90
2023-05-05T21:41:24.867Z,1.30
2023-05-05T21:46:25.883Z,1.45
2023-05-05T21:51:26.646Z,1.10
2023-05-05T21:56:27.747Z,1.42
2023-05-05T22:01:28.638Z,2.35
2023-05-05T22:06:29.913Z,0.90
2023-05-05T22:11:30.692Z,1.00
2023-05-05T22:16:31.761Z,1.65
2023-05-05T22:21:32.905Z,1.27
2023-05-05T22:26:33.691Z,1.10
2023-05-05T22:31:35.050Z,1.40
2023-05-05T22:36:35.888Z,1.15
2023-05-05T22:41:36.646Z,1.12
2023-05-05T22:46:37.556Z,0.70
2023-05-05T22:51:39.428Z,1.12
2023-05-05T22:56:40.271Z,1.00
2023-05-05T23:01:41.090Z,0.90
2023-05-05T23:06:41.961Z,0.70
2023-05-05T23:11:42.724Z,0.80
2023-05-05T23:16:43.731Z,0.60
2023-05-05T23:21:52.819Z,0.75
2023-05-05T23:26:57.691Z,0.80
2023-05-05T23:31:58.474Z,0.60
2023-05-05T23:36:59.272Z,0.90
2023-05-05T23:42:00.051Z,0.82
2023-05-05T23:47:01.314Z,0.50
2023-05-05T23:52:02.460Z,0.70
2023-05-05T23:57:03.496Z,0.68
